Flight Track Log - Related Links

Times and Time Zones

All times are in EDT time to prevent confusion due to time zone crossing. See the SWA2153 flight status page for this flight to view local times or setup timezone preferences in your user account.


Time Position Orientation Groundspeed Altitude Reporting Facility
EDT Latitude Longitude Course Direction KTS MPH feet Rate Location/Type
Sat 01:07:34 PM 32.8333 -96.8333 121° Southeast 194 223 1,300  Level Dallas / Fort Worth TRACON
Sat 01:08:05 PM 32.8167 -96.8000 121° Southeast 184 212 2,500 2,450 Climbing Dallas / Fort Worth TRACON
Sat 01:09:34 PM 32.7592 -96.7253 132° Southeast 230 265 6,200 2,384 Climbing Fort Worth Center
Sat 01:10:36 PM 32.6911 -96.6978 161° South 255 293 8,500 1,355 Climbing Fort Worth Center
Sat 01:11:38 PM 32.6350 -96.7481 217° Southwest 281 323 9,000 435 Climbing Fort Worth Center
Sat 01:12:40 PM 32.6133 -96.8436 255° West 279 321 9,400 1,403 Climbing Fort Worth Center
Sat 01:13:42 PM 32.5558 -96.9144 226° Southwest 297 342 11,900 2,226 Climbing Fort Worth Center
Sat 01:14:44 PM 32.4761 -96.9642 208° Southwest 310 357 14,000 1,728 Climbing Fort Worth Center
Sat 01:15:47 PM 32.3881 -97.0092 203° Southwest 347 399 15,500 1,680 Climbing Fort Worth Center
Sat 01:16:49 PM 32.2825 -97.0592 202° Southwest 375 432 17,500 2,032 Climbing Fort Worth Center
Sat 01:17:51 PM 32.1686 -97.0636 182° South 396 456 19,700 1,790 Climbing Fort Worth Center
Sat 01:18:53 PM 32.0589 -97.0669 181° South 395 455 21,200 1,500 Climbing Fort Worth Center
Sat 01:19:55 PM 31.9544 -97.0700 181° South 411 473 22,800 1,403 Climbing Fort Worth Center
Sat 01:20:57 PM 31.8378 -97.0731 181° South 415 478 24,100 1,258 Climbing Fort Worth Center
Sat 01:21:59 PM 31.6919 -97.0772 181° South 434 499 25,400 1,355 Climbing Fort Worth Center
Sat 01:23:01 PM 31.5664 -97.0814 182° South 447 514 26,900 1,597 Climbing Fort Worth Center
Sat 01:24:03 PM 31.4483 -97.1150 194° South 438 504 28,700 1,500 Climbing Fort Worth Center
Sat 01:25:05 PM 31.3342 -97.1606 199° South 434 499 30,000 624 Climbing Fort Worth Center
Sat 01:26:08 PM 31.2172 -97.2064 199° South 438 504 30,000  Level Fort Worth Center
Sat 01:27:10 PM 31.0786 -97.2608 199° South 442 509 30,000  Level Fort Worth Center
Sat 01:28:12 PM 30.9711 -97.3039 199° South 444 511 30,000  Level Fort Worth Center
Sat 01:29:02 PM 30.8617 -97.3431 197° South 448 516 30,000  Level Houston Center
Sat 01:30:04 PM 30.7333 -97.3931 199° South 444 511 30,000  Level Houston Center
Sat 01:31:06 PM 30.6172 -97.4383 199° South 444 511 30,000 -432 Level Houston Center
Sat 01:32:09 PM 30.5000 -97.4839 199° South 444 511 29,100 -1,968 Descending Houston Center
Sat 01:33:11 PM 30.3819 -97.5283 198° South 444 511 25,900 -2,710 Descending Houston Center
Sat 01:34:13 PM 30.2814 -97.6000 212° Southwest 425 489 23,500 -3,000 Descending Houston Center
Sat 01:35:15 PM 30.1825 -97.6644 209° Southwest 411 473 19,700 -3,857 Descending Houston Center
Sat 01:36:05 PM 30.0878 -97.7314 211° Southwest 397 457 16,300 -4,065 Descending Houston Center
Sat 01:36:17 PM 30.0664 -97.7456 210° Southwest 398 458 15,500 -3,360 Descending Houston Center
Sat 01:36:30 PM 30.0525 -97.7553 211° Southwest 393 452 14,900 -2,557 Descending Houston Center
Sat 01:37:18 PM 29.9756 -97.8086 211° Southwest 381 438 12,900 -1,046 Descending Houston Center
Sat 01:38:19 PM 29.8989 -97.8642 212° Southwest 304 350 13,000 -810 Climbing Houston Center
Sat 01:39:24 PM 29.8600 -97.9572 244° Southwest 306 352 11,200 -1,512 Descending Houston Center
Sat 01:40:26 PM 29.8717 -98.0628 277° West 301 346 9,800 -1,415 Descending Houston Center
Sat 01:41:27 PM 29.8214 -98.1292 229° Southwest 272 313 8,300 -1,180 Descending Houston Center
Sat 01:42:28 PM 29.7742 -98.1856 226° Southwest 240 276 7,400 -816 Descending Houston Center
Sat 01:43:32 PM 29.7333 -98.2336 226° Southwest 194 223 6,600 -905 Descending Houston Center
Sat 01:44:34 PM 29.6997 -98.2728 225° Southwest 173 199 5,500 -1,220 Descending Houston Center
Sat 01:45:30 PM 29.6700 -98.3067 225° Southwest 157 181 4,200 -1,351 Descending Houston Center
Sat 01:46:25 PM 29.6433 -98.3389 226° Southwest 153 176 3,000 -1,235 Descending Houston Center
Sat 01:46:38 PM 29.6372 -98.3467 228° Southwest 156 180 2,800 -400 Descending Houston Center
Sat 01:47:40 PM 29.6086 -98.3800 225° Southwest 142 163 2,500 -444 Descending Houston Center
Sat 01:48:26 PM 29.5867 -98.4058 226° Southwest 142 163 2,000 -677 Descending Houston Center
Sat 01:48:42 PM 29.5806 -98.4131 226° Southwest 142 163 1,800 -740 Descending Houston Center
Sat 01:49:39 PM 29.5522 -98.4411 221° Southwest 139 160 1,100 -737 Descending Houston Center
Sat 01:51:00 PM 29.5333 -98.4667 240° Southwest  Level FlightAware Approximate
Sat 01:58:00 PM 29.5340 -98.4691 240° Southwest  Level Estimated
Sat 01:59:00 PM 29.5333 -98.4667 240° Southwest  Level FlightAware Approximate
Sat 02:00:00 PM 29.5340 -98.4691 240° Southwest  Level Estimated

Login

Don't have an account? Register now (free) for customized features, flight alerts, and more!